Mount Signal, California
Current Conditions -  °F | °C
As of 8:53 PM on Tuesday 25 Nov 2014 (Local Time) from KIPL Reporting Station
Clear Clear  
Wind Chill: 51°   Ceiling: Unl
Heat Index: 51°   Visibility: 10mi
Dew Point: 26°   Wind: 0mph
Humidity: 38%   Direction: NA
Pressure: 30.3"   Gusts: NA
Location:  32.6882°N, 115.548°W
Report Text: KIPL 260453Z AUTO 00000KT 10SM CLR 11/M03 A3030 RMK AO2 SLP261 T01061033
Loading
Personal Weather Stations






























Interactive Weather Map New forecast layout! Learn more

10-Day Weather Forecast

Advertisements
Track Severe Weather on mobile